Airfield :
LOGIN :

Register | Disclaimer

   EN    FR    IT 

 










Legend :    VFR   Marginal VFR   IFR   Intensive IFR   Very Intensive IFR
Visi :
Ceiling :
>= 8 km
>= 3000ft
5 to 8 km
1000 to 3000 ft
1500m to 5 km
500 to 1000 ft
800 to 1500m
200 to 500 ft
< 800m
< 200 ft
Symbols :   Thunderstorms  Fog  Heavy snow  Heavy precipitations  Wind > 20 kt
SIGMETs :     Misc.  Thunderstorms  Icing  Turbulence  Mountain Waves  Volcanic Ashes






- Airport Elevation : 242 ft
- IATA code : DUB


EIDW - Dublin

CURRENT METAR :
  • 212230Z 25006KT 210V280 4000 -BR FEW002 BKN003 BKN007 08/08 Q1041 TEMPO BKN002

EXPIRED METARs :
  • 212200Z 25005KT 210V270 7000 FEW002 BKN005 BKN007 08/07 Q1041 NOSIG
  • 212130Z 26007KT 7000 FEW002 BKN004 BKN007 08/07 Q1041 TEMPO 4000 BKN002
  • 212100Z 27008KT 7000 FEW002 BKN004 BKN007 07/07 Q1040 TEMPO 4000 BKN002
  • 212030Z 26006KT 210V280 5000 -DZ FEW002 BKN004 BKN007 08/07 Q1041 TEMPO 4000 BKN002
  • 212000Z 25006KT 210V280 7000 FEW002 BKN005 BKN007 08/07 Q1041 NOSIG

TAF TAF EIDW
Valid from the 21 at 18:00 until the 22 at 18:00 UTC


211700Z 2118/2218 25006KT 9999 SCT005 BKN030
TEMPO 2118/2218 4000 -DZ BKN005
PROB30
TEMPO 2118/2206 1500 BR BKN002
BECMG 2122/2124 28007KT
PROB30
TEMPO 2206/2218 2500 BR BKN003



MET'MAP, your aeronautical weather chart ! - Copyright ORBIFLY December 2007 - Disclaimer

ORBIFLY MET'MAP TEAM :

Programming & Development : Alexandra Zaïnal
Concept & original design : Baudouin d'Aumeries
Assistance for programming : Marc-Olivier Méhu
Technical & hardware support : Manuel Goepfert

Contact : metmap@orbifly.com




SOURCES & CREDITS :

   NOAA